Time;durP1;ratioP1;P1;durP2;ratioP2;P2;SDS_P1;SDS_P2;PMS_P1;PMS_P2;Temp;Humidity;BMP_temperature;BMP_pressure;BME280_temperature;BME280_humidity;BME280_pressure;Samples;Min_cycle;Max_cycle;Signal;HPM_P1;HPM_P2
2023/03/17 00:00:18;;;;;;;12.07;4.38;;;5.40;99.90;;;;;;5055722;28;20078;-67
2023/03/17 00:02:45;;;;;;;7.05;3.22;;;5.40;99.90;;;;;;5055745;28;20021;-67
2023/03/17 00:05:14;;;;;;;7.50;3.50;;;5.40;99.90;;;;;;5055364;28;20031;-67
2023/03/17 00:07:40;;;;;;;13.02;3.92;;;5.30;99.90;;;;;;5056080;28;20029;-68
2023/03/17 00:10:12;;;;;;;6.15;3.70;;;5.40;99.90;;;;;;5056367;28;20048;-67
2023/03/17 00:12:38;;;;;;;12.00;4.00;;;5.50;99.90;;;;;;5057585;28;20025;-68
2023/03/17 00:15:04;;;;;;;7.13;3.78;;;5.50;99.90;;;;;;5060141;28;20028;-67
2023/03/17 00:17:30;;;;;;;12.00;4.07;;;5.50;99.90;;;;;;5059436;28;20040;-67
2023/03/17 00:19:55;;;;;;;8.23;3.20;;;5.60;99.90;;;;;;5059666;28;20092;-67
2023/03/17 00:22:21;;;;;;;10.73;3.90;;;5.40;99.90;;;;;;5059636;28;20025;-67
2023/03/17 00:24:47;;;;;;;11.32;3.63;;;5.30;99.90;;;;;;5060045;28;20021;-67
2023/03/17 00:27:13;;;;;;;6.55;3.47;;;5.20;99.90;;;;;;5059762;28;20119;-67
2023/03/17 00:29:39;;;;;;;6.57;3.85;;;5.20;99.90;;;;;;5058758;28;20028;-67
2023/03/17 00:32:14;;;;;;;8.52;3.50;;;5.30;99.90;;;;;;5059474;28;20060;-67
2023/03/17 00:34:40;;;;;;;5.80;2.90;;;5.00;99.90;;;;;;5059371;28;20055;-67
2023/03/17 00:37:10;;;;;;;7.10;3.08;;;5.00;99.90;;;;;;5058435;28;20028;-67
2023/03/17 00:39:35;;;;;;;10.48;3.30;;;4.90;99.90;;;;;;5059123;28;20021;-67
2023/03/17 00:42:01;;;;;;;10.07;3.60;;;4.90;99.90;;;;;;5058310;28;20021;-67
2023/03/17 00:44:27;;;;;;;5.95;3.40;;;5.00;99.90;;;;;;5059753;28;20021;-67
2023/03/17 00:46:53;;;;;;;10.77;3.90;;;5.10;99.90;;;;;;5059322;28;20028;-67
2023/03/17 00:49:21;;;;;;;8.60;3.55;;;5.00;99.90;;;;;;5059068;28;20044;-67
2023/03/17 00:51:48;;;;;;;10.90;3.47;;;4.90;99.90;;;;;;5059178;28;20080;-67
2023/03/17 00:54:14;;;;;;;13.48;4.18;;;4.90;99.90;;;;;;5058967;28;20040;-67
2023/03/17 00:56:41;;;;;;;6.50;3.33;;;4.90;99.90;;;;;;5058113;28;20063;-67
2023/03/17 00:59:37;;;;;;;11.98;3.90;;;4.80;99.90;;;;;;5058069;28;20032;-67
2023/03/17 01:02:02;;;;;;;9.30;4.05;;;4.80;99.90;;;;;;5058007;28;20060;-67
2023/03/17 01:04:28;;;;;;;12.05;3.30;;;4.80;99.90;;;;;;5058620;28;20021;-67
2023/03/17 01:06:53;;;;;;;6.30;3.20;;;4.60;99.90;;;;;;5057978;28;20037;-67
2023/03/17 01:09:22;;;;;;;6.60;2.88;;;4.80;99.90;;;;;;5059273;28;20124;-67
2023/03/17 01:11:48;;;;;;;12.43;3.67;;;4.90;99.90;;;;;;5058502;28;20025;-67
2023/03/17 01:14:14;;;;;;;7.95;3.70;;;5.00;99.90;;;;;;5058902;28;20036;-67
2023/03/17 01:16:40;;;;;;;9.40;3.95;;;5.10;99.90;;;;;;5058528;28;20032;-67
2023/03/17 01:19:06;;;;;;;6.88;3.75;;;5.20;99.90;;;;;;5057952;28;20025;-67
2023/03/17 01:21:31;;;;;;;7.75;3.20;;;5.30;99.90;;;;;;5057707;28;20028;-67
2023/03/17 01:23:57;;;;;;;13.60;3.55;;;5.00;99.90;;;;;;5057428;28;20044;-67
2023/03/17 01:26:23;;;;;;;10.23;3.78;;;4.80;99.90;;;;;;5058336;28;20025;-67
2023/03/17 01:28:48;;;;;;;6.55;3.42;;;4.50;99.90;;;;;;5057943;28;20083;-67
2023/03/17 01:31:14;;;;;;;11.48;3.22;;;4.70;99.90;;;;;;5057492;28;20056;-67
2023/03/17 01:33:39;;;;;;;10.18;3.60;;;4.70;99.90;;;;;;5057306;28;20116;-67
2023/03/17 01:36:05;;;;;;;5.25;3.17;;;4.80;99.90;;;;;;5057520;28;20112;-67
2023/03/17 01:38:31;;;;;;;7.22;3.40;;;4.70;99.90;;;;;;5057169;28;20024;-69
2023/03/17 01:40:57;;;;;;;8.93;3.90;;;4.80;99.90;;;;;;5057497;28;20028;-70
2023/03/17 01:43:26;;;;;;;7.35;3.85;;;4.80;99.90;;;;;;5058183;28;20017;-69
2023/03/17 01:46:24;;;;;;;6.63;3.92;;;4.90;99.90;;;;;;5058090;28;20028;-69
2023/03/17 01:48:59;;;;;;;6.50;3.55;;;4.90;99.90;;;;;;5057043;28;20117;-69
2023/03/17 01:51:31;;;;;;;6.85;3.83;;;4.90;99.90;;;;;;5058184;28;20025;-68
2023/03/17 01:54:00;;;;;;;8.65;3.58;;;5.00;99.90;;;;;;5057127;28;20089;-69
2023/03/17 01:56:27;;;;;;;6.90;3.30;;;5.00;99.90;;;;;;5056758;28;20028;-69
2023/03/17 01:58:55;;;;;;;5.03;3.25;;;5.00;99.90;;;;;;5056795;28;20016;-68
2023/03/17 02:01:25;;;;;;;12.82;4.03;;;5.00;99.90;;;;;;5057978;28;20021;-68
2023/03/17 02:03:52;;;;;;;12.85;3.80;;;5.10;99.90;;;;;;5057919;28;20024;-68
2023/03/17 02:06:18;;;;;;;7.78;3.45;;;5.10;99.90;;;;;;5058141;28;20024;-68
2023/03/17 02:08:45;;;;;;;6.63;3.50;;;5.00;99.90;;;;;;5057649;28;20044;-68
2023/03/17 02:11:10;;;;;;;8.13;3.42;;;4.90;99.90;;;;;;5056584;28;20025;-68
2023/03/17 02:13:37;;;;;;;9.13;3.95;;;4.90;99.90;;;;;;5057700;28;20025;-68
2023/03/17 02:16:03;;;;;;;8.13;3.00;;;4.70;99.90;;;;;;5056420;28;20025;-68
2023/03/17 02:18:42;;;;;;;16.80;3.22;;;4.60;99.90;;;;;;5057786;28;20021;-68
2023/03/17 02:21:26;;;;;;;12.77;3.35;;;4.50;99.90;;;;;;5057336;28;20024;-68
2023/03/17 02:23:52;;;;;;;11.23;3.22;;;4.40;99.90;;;;;;5057350;28;20049;-68
2023/03/17 02:26:20;;;;;;;6.88;2.65;;;4.30;99.90;;;;;;5056401;28;20025;-68
2023/03/17 02:28:47;;;;;;;7.70;3.45;;;4.30;99.90;;;;;;5056655;28;20029;-68
2023/03/17 02:31:13;;;;;;;8.63;3.40;;;4.20;99.90;;;;;;5057323;28;20021;-68
2023/03/17 02:33:38;;;;;;;8.32;3.45;;;4.40;99.90;;;;;;5056285;28;20025;-68
2023/03/17 02:36:04;;;;;;;8.75;3.40;;;4.50;99.90;;;;;;5055774;28;20029;-69
2023/03/17 02:38:30;;;;;;;7.38;3.90;;;4.30;99.90;;;;;;5056347;28;20043;-68
2023/03/17 02:40:56;;;;;;;7.20;3.42;;;4.40;99.90;;;;;;5057047;28;20054;-69
2023/03/17 02:43:21;;;;;;;7.88;3.53;;;4.40;99.90;;;;;;5056118;28;20025;-69
2023/03/17 02:45:47;;;;;;;7.03;3.15;;;4.40;99.90;;;;;;5057230;28;20091;-69
2023/03/17 02:48:13;;;;;;;11.88;3.58;;;4.40;99.90;;;;;;5057222;28;20079;-68
2023/03/17 02:50:38;;;;;;;6.65;3.80;;;4.40;99.90;;;;;;5056614;28;20071;-68
2023/03/17 02:53:04;;;;;;;10.32;3.30;;;4.50;99.90;;;;;;5056895;28;20037;-68
2023/03/17 02:55:31;;;;;;;11.73;4.40;;;4.60;99.90;;;;;;5056074;28;20025;-68
2023/03/17 02:57:57;;;;;;;7.40;4.32;;;4.40;99.90;;;;;;5057042;28;20071;-68
2023/03/17 03:00:23;;;;;;;12.82;3.45;;;4.20;99.90;;;;;;5056854;28;20017;-68
2023/03/17 03:02:48;;;;;;;6.40;3.67;;;4.20;99.90;;;;;;5057393;28;20021;-68
2023/03/17 03:05:14;;;;;;;6.75;3.25;;;4.00;99.90;;;;;;5055990;28;20035;-68
2023/03/17 03:07:40;;;;;;;10.93;3.50;;;3.90;99.90;;;;;;5055758;28;20025;-68
2023/03/17 03:10:06;;;;;;;5.38;3.25;;;4.00;99.90;;;;;;5055898;28;20021;-69
2023/03/17 03:12:31;;;;;;;7.50;3.30;;;4.00;99.90;;;;;;5056174;28;20021;-69
2023/03/17 03:14:57;;;;;;;5.43;3.50;;;4.20;99.90;;;;;;5056244;28;20048;-68
2023/03/17 03:17:23;;;;;;;6.88;3.58;;;4.40;99.90;;;;;;5055653;28;20025;-68
2023/03/17 03:19:49;;;;;;;9.68;4.22;;;4.40;99.90;;;;;;5056749;28;20192;-69
2023/03/17 03:22:15;;;;;;;10.45;4.25;;;4.20;99.90;;;;;;5055800;28;20101;-69
2023/03/17 03:24:40;;;;;;;7.60;3.85;;;4.10;99.90;;;;;;5055720;28;20072;-69
2023/03/17 03:27:06;;;;;;;7.10;3.70;;;4.20;99.90;;;;;;5055697;28;20028;-68
2023/03/17 03:29:32;;;;;;;8.20;3.92;;;4.20;99.90;;;;;;5055632;28;20033;-68
2023/03/17 03:31:57;;;;;;;10.00;3.72;;;4.20;99.90;;;;;;5056579;28;20025;-68
2023/03/17 03:34:23;;;;;;;7.30;3.65;;;4.20;99.90;;;;;;5055989;28;20035;-69
2023/03/17 03:36:48;;;;;;;6.78;3.85;;;4.20;99.90;;;;;;5055519;28;20021;-69
2023/03/17 03:39:14;;;;;;;5.03;3.10;;;4.30;99.90;;;;;;5055488;28;20021;-68
2023/03/17 03:41:40;;;;;;;7.47;4.22;;;4.40;99.90;;;;;;5055732;28;20051;-69
2023/03/17 03:44:05;;;;;;;12.40;4.00;;;4.40;99.90;;;;;;5055785;28;20068;-69
2023/03/17 03:46:31;;;;;;;8.13;3.67;;;4.50;99.90;;;;;;5058219;28;20070;-69
2023/03/17 03:48:57;;;;;;;9.85;3.60;;;4.20;99.90;;;;;;5059276;28;20036;-69
2023/03/17 03:51:22;;;;;;;10.20;3.45;;;4.10;99.90;;;;;;5060767;28;20048;-68
2023/03/17 03:53:48;;;;;;;8.15;3.70;;;4.00;99.90;;;;;;5059608;28;20021;-68
2023/03/17 03:56:14;;;;;;;11.65;3.65;;;3.90;99.90;;;;;;5059518;28;20021;-69
2023/03/17 03:58:40;;;;;;;11.98;5.07;;;3.80;99.90;;;;;;5060112;28;20021;-68
2023/03/17 04:01:08;;;;;;;8.82;3.17;;;3.80;99.90;;;;;;5060044;28;20037;-68
2023/03/17 04:03:34;;;;;;;7.90;3.50;;;3.80;99.90;;;;;;5059386;28;20083;-69
2023/03/17 04:06:00;;;;;;;11.65;3.65;;;3.70;99.90;;;;;;5059912;28;20035;-69
2023/03/17 04:08:26;;;;;;;8.20;3.90;;;3.70;99.90;;;;;;5058900;28;20112;-68
2023/03/17 04:10:51;;;;;;;14.32;3.70;;;3.70;99.90;;;;;;5058929;28;20017;-68
2023/03/17 04:13:17;;;;;;;8.65;3.50;;;3.50;99.90;;;;;;5058841;28;20071;-68
2023/03/17 04:15:43;;;;;;;13.82;3.47;;;3.50;99.90;;;;;;5059044;28;20109;-68
2023/03/17 04:18:08;;;;;;;8.07;3.55;;;3.60;99.90;;;;;;5059463;28;20052;-68
2023/03/17 04:20:34;;;;;;;9.32;3.67;;;3.60;99.90;;;;;;5058737;28;20017;-68
2023/03/17 04:22:59;;;;;;;13.50;3.63;;;3.70;99.90;;;;;;5059710;28;20032;-68
2023/03/17 04:25:25;;;;;;;7.15;4.30;;;3.70;99.90;;;;;;5058986;28;20032;-68
2023/03/17 04:27:51;;;;;;;7.03;3.50;;;3.80;99.90;;;;;;5059766;28;20076;-68
2023/03/17 04:30:17;;;;;;;9.40;3.70;;;3.80;99.90;;;;;;5059198;28;20036;-68
2023/03/17 04:32:43;;;;;;;6.38;3.40;;;3.90;99.90;;;;;;5058634;28;20032;-68
2023/03/17 04:35:13;;;;;;;13.05;4.10;;;3.90;99.90;;;;;;5058421;28;20021;-68
2023/03/17 04:37:38;;;;;;;9.73;3.88;;;3.90;99.90;;;;;;5059247;28;20053;-69
2023/03/17 04:40:08;;;;;;;8.32;3.17;;;3.90;99.90;;;;;;5059282;28;20063;-68
2023/03/17 04:42:34;;;;;;;8.10;3.58;;;3.80;99.90;;;;;;5059243;28;20024;-68
2023/03/17 04:45:00;;;;;;;13.63;3.70;;;3.70;99.90;;;;;;5058922;28;20025;-69
2023/03/17 04:47:25;;;;;;;5.00;3.13;;;3.60;99.90;;;;;;5058089;28;20103;-68
2023/03/17 04:49:51;;;;;;;11.75;3.65;;;3.60;99.90;;;;;;5058098;28;20025;-68
2023/03/17 04:52:16;;;;;;;6.22;3.65;;;3.50;99.90;;;;;;5059653;28;20059;-68
2023/03/17 04:54:42;;;;;;;8.10;3.90;;;3.50;99.90;;;;;;5058436;28;20136;-68
2023/03/17 04:57:08;;;;;;;10.15;3.95;;;3.40;99.90;;;;;;5058089;28;20063;-68
2023/03/17 04:59:34;;;;;;;9.27;4.03;;;3.50;99.90;;;;;;5057304;28;20123;-69
2023/03/17 05:02:01;;;;;;;10.88;4.22;;;3.50;99.90;;;;;;5058254;28;20031;-68
2023/03/17 05:04:26;;;;;;;6.40;3.72;;;3.50;99.90;;;;;;5058750;28;20025;-68
2023/03/17 05:06:52;;;;;;;10.75;3.80;;;3.50;99.90;;;;;;5058982;28;20031;-68
2023/03/17 05:09:17;;;;;;;10.52;4.68;;;3.70;99.90;;;;;;5058150;28;20029;-67
2023/03/17 05:11:43;;;;;;;14.77;3.88;;;3.80;99.90;;;;;;5057990;28;20021;-66
2023/03/17 05:14:08;;;;;;;7.65;3.65;;;3.60;99.90;;;;;;5057790;28;20025;-67
2023/03/17 05:16:34;;;;;;;7.13;3.50;;;3.50;99.90;;;;;;5058534;28;20021;-66
2023/03/17 05:19:00;;;;;;;8.32;3.40;;;3.40;99.90;;;;;;5057916;28;20033;-67
2023/03/17 05:21:25;;;;;;;7.40;3.85;;;3.40;99.90;;;;;;5058829;28;20013;-66
2023/03/17 05:23:51;;;;;;;11.00;3.85;;;3.40;99.90;;;;;;5058526;28;20044;-67
2023/03/17 05:26:17;;;;;;;12.25;4.18;;;3.40;99.90;;;;;;5058111;28;20021;-67
2023/03/17 05:28:43;;;;;;;8.15;3.65;;;3.30;99.90;;;;;;5057425;28;20017;-66
2023/03/17 05:31:08;;;;;;;8.45;3.92;;;3.20;99.90;;;;;;5058583;28;20040;-66
2023/03/17 05:33:35;;;;;;;10.23;3.38;;;3.20;99.90;;;;;;5058288;28;20163;-66
2023/03/17 05:36:02;;;;;;;8.73;3.97;;;3.30;99.90;;;;;;5057273;28;20025;-66
2023/03/17 05:38:28;;;;;;;9.18;4.05;;;3.30;99.90;;;;;;5057653;28;20025;-66
2023/03/17 05:40:54;;;;;;;7.88;4.15;;;3.40;99.90;;;;;;5058162;28;20032;-66
2023/03/17 05:43:20;;;;;;;6.57;3.10;;;3.30;99.90;;;;;;5057962;28;20040;-66
2023/03/17 05:45:46;;;;;;;7.47;3.55;;;3.20;99.90;;;;;;5058023;28;20021;-67
2023/03/17 05:48:12;;;;;;;11.77;3.80;;;3.20;99.90;;;;;;5057922;28;20104;-67
2023/03/17 05:50:38;;;;;;;13.60;4.32;;;3.20;99.90;;;;;;5057915;28;20083;-67
2023/03/17 05:53:05;;;;;;;11.43;4.03;;;3.30;99.90;;;;;;5058169;28;20021;-66
2023/03/17 05:55:30;;;;;;;10.35;5.35;;;3.40;99.90;;;;;;5058212;28;20113;-66
2023/03/17 05:57:56;;;;;;;9.13;3.25;;;3.10;99.90;;;;;;5056835;28;20060;-66
2023/03/17 06:00:22;;;;;;;10.70;4.35;;;3.00;99.90;;;;;;5057765;28;20029;-66
2023/03/17 06:02:47;;;;;;;7.95;3.58;;;2.90;99.90;;;;;;5056910;28;20021;-66
2023/03/17 06:05:13;;;;;;;9.45;3.95;;;2.90;99.90;;;;;;5057740;28;20025;-67
2023/03/17 06:07:40;;;;;;;7.90;4.07;;;3.00;99.90;;;;;;5056725;28;20028;-66
2023/03/17 06:10:06;;;;;;;9.52;3.90;;;3.00;99.90;;;;;;5056597;28;20028;-67
2023/03/17 06:12:32;;;;;;;8.23;4.18;;;3.10;99.90;;;;;;5056594;28;20020;-67
2023/03/17 06:14:57;;;;;;;9.77;4.78;;;3.10;99.90;;;;;;5056812;28;20021;-67
2023/03/17 06:17:23;;;;;;;9.40;4.07;;;3.20;99.90;;;;;;5057387;28;20032;-67
2023/03/17 06:19:48;;;;;;;10.05;4.15;;;3.30;99.90;;;;;;5057435;28;20013;-67
2023/03/17 06:22:14;;;;;;;14.15;6.10;;;3.30;99.90;;;;;;5057624;28;20052;-66
2023/03/17 06:24:40;;;;;;;12.60;5.15;;;3.20;99.90;;;;;;5056594;28;20120;-67
2023/03/17 06:27:05;;;;;;;12.25;4.85;;;3.30;99.90;;;;;;5057403;28;20024;-67
2023/03/17 06:29:31;;;;;;;10.48;4.50;;;3.30;99.90;;;;;;5057188;28;20021;-67
2023/03/17 06:31:56;;;;;;;9.27;4.35;;;3.10;99.90;;;;;;5057415;28;20027;-67
2023/03/17 06:34:24;;;;;;;13.80;4.95;;;2.90;99.90;;;;;;5056718;28;20029;-66
2023/03/17 06:36:50;;;;;;;10.57;4.45;;;2.90;99.90;;;;;;5056192;28;20021;-67
2023/03/17 06:39:16;;;;;;;9.32;3.60;;;3.10;99.90;;;;;;5056614;28;20017;-67
2023/03/17 06:41:42;;;;;;;8.90;4.13;;;3.30;99.90;;;;;;5057370;28;20045;-67
2023/03/17 06:44:08;;;;;;;10.77;5.05;;;3.50;99.90;;;;;;5056124;28;20059;-67
2023/03/17 06:46:34;;;;;;;11.82;4.63;;;3.70;99.90;;;;;;5057165;28;20051;-67
2023/03/17 06:49:02;;;;;;;16.40;5.00;;;3.80;99.90;;;;;;5056393;28;20032;-67
2023/03/17 06:51:28;;;;;;;10.30;4.25;;;3.70;99.90;;;;;;5057351;28;20098;-67
2023/03/17 06:53:54;;;;;;;11.35;4.75;;;3.50;99.90;;;;;;5056111;28;20029;-67
2023/03/17 06:56:20;;;;;;;10.18;4.45;;;3.30;99.90;;;;;;5056869;28;20051;-67
2023/03/17 06:58:46;;;;;;;9.18;4.15;;;3.30;99.90;;;;;;5055949;28;20045;-67
2023/03/17 07:01:13;;;;;;;13.55;4.15;;;3.40;99.90;;;;;;5056892;28;20039;-67
2023/03/17 07:03:39;;;;;;;12.55;4.30;;;3.60;99.90;;;;;;5050409;28;20075;-67
2023/03/17 07:06:05;;;;;;;7.95;3.97;;;3.80;99.90;;;;;;5036076;28;20021;-66
2023/03/17 07:08:30;;;;;;;13.88;4.35;;;4.00;99.90;;;;;;5036851;28;20065;-67
2023/03/17 07:10:57;;;;;;;8.20;4.05;;;4.10;99.90;;;;;;5035967;28;20030;-67
2023/03/17 07:13:23;;;;;;;12.95;4.57;;;4.20;99.90;;;;;;5036048;28;20029;-67
2023/03/17 07:15:49;;;;;;;8.75;4.20;;;4.30;99.90;;;;;;5036326;28;20041;-67
2023/03/17 07:18:15;;;;;;;7.55;4.28;;;4.40;99.90;;;;;;5035737;28;20032;-67
2023/03/17 07:20:42;;;;;;;16.10;5.07;;;4.50;99.90;;;;;;5036702;28;20017;-67
2023/03/17 07:23:13;;;;;;;10.40;5.10;;;4.70;99.90;;;;;;5039833;28;20063;-66
2023/03/17 07:25:42;;;;;;;9.90;3.97;;;5.00;99.90;;;;;;5040821;28;20022;-66
2023/03/17 07:28:08;;;;;;;9.35;4.40;;;5.30;99.90;;;;;;5039680;28;20033;-66
2023/03/17 07:30:34;;;;;;;7.97;3.65;;;5.50;99.90;;;;;;5040912;28;20033;-66
2023/03/17 08:11:36;;;;;;;5.35;2.67;;;7.00;99.90;;;;;;5075174;28;20341;-67
2023/03/17 08:14:06;;;;;;;4.80;2.70;;;8.10;99.90;;;;;;5074124;28;20083;-67
2023/03/17 08:16:32;;;;;;;5.13;2.92;;;8.20;99.90;;;;;;5073550;28;20046;-67
2023/03/17 08:18:57;;;;;;;4.88;2.95;;;8.10;99.90;;;;;;5074176;28;20021;-67
2023/03/17 08:21:25;;;;;;;6.35;3.03;;;8.10;99.90;;;;;;5074346;28;20020;-67
2023/03/17 08:23:51;;;;;;;5.25;2.70;;;8.10;99.90;;;;;;5074313;28;20031;-67
2023/03/17 08:26:17;;;;;;;6.35;2.75;;;8.20;99.90;;;;;;5073393;28;20029;-67
2023/03/17 08:28:43;;;;;;;6.82;2.83;;;8.40;99.90;;;;;;5073589;28;20086;-67
2023/03/17 08:31:19;;;;;;;6.65;2.67;;;8.50;99.90;;;;;;5073070;28;20088;-66
2023/03/17 08:33:47;;;;;;;7.55;2.60;;;8.60;99.90;;;;;;5069473;28;20059;-67
2023/03/17 08:36:29;;;;;;;7.78;2.78;;;8.70;99.90;;;;;;5073279;28;20032;-66
2023/03/17 08:38:54;;;;;;;4.75;2.60;;;8.90;99.90;;;;;;5074039;28;20017;-68
2023/03/17 08:41:22;;;;;;;4.43;2.55;;;8.90;99.90;;;;;;5073509;28;20039;-66
2023/03/17 08:43:49;;;;;;;4.05;2.45;;;9.00;99.90;;;;;;5073043;28;20021;-66
2023/03/17 08:46:18;;;;;;;4.63;3.10;;;9.10;99.90;;;;;;5073581;28;20025;-67
2023/03/17 08:48:46;;;;;;;4.35;2.85;;;9.10;99.90;;;;;;5073842;28;20027;-68
2023/03/17 08:51:13;;;;;;;4.15;2.40;;;9.20;99.90;;;;;;5073597;28;20024;-68
2023/03/17 08:53:39;;;;;;;6.03;3.25;;;9.30;99.90;;;;;;5073683;28;20055;-68
2023/03/17 08:56:07;;;;;;;6.30;2.88;;;9.30;99.90;;;;;;5072451;28;20028;-68
2023/03/17 08:58:34;;;;;;;5.30;3.10;;;9.30;99.90;;;;;;5072785;28;20074;-68
2023/03/17 09:01:01;;;;;;;5.22;2.33;;;9.40;99.90;;;;;;5072407;28;20056;-68
2023/03/17 09:03:27;;;;;;;5.30;2.78;;;9.40;99.90;;;;;;5072546;28;20083;-67
2023/03/17 09:05:54;;;;;;;6.20;3.25;;;9.50;99.90;;;;;;5073331;28;20039;-68
2023/03/17 09:08:20;;;;;;;3.90;2.58;;;9.40;99.90;;;;;;5072601;28;20120;-67
2023/03/17 09:10:46;;;;;;;4.93;2.72;;;9.50;99.90;;;;;;5072264;28;20083;-68
2023/03/17 09:13:12;;;;;;;5.93;2.88;;;9.70;99.90;;;;;;5072220;28;20017;-67
2023/03/17 09:15:38;;;;;;;3.90;2.47;;;9.80;99.90;;;;;;5072195;28;20032;-67
2023/03/17 09:18:05;;;;;;;6.05;3.33;;;9.80;99.90;;;;;;5072353;28;20020;-67
2023/03/17 09:20:31;;;;;;;4.07;2.45;;;9.90;99.90;;;;;;5072084;28;20025;-67
2023/03/17 09:22:57;;;;;;;4.53;2.50;;;10.00;99.90;;;;;;5059553;28;20021;-68
2023/03/17 09:25:23;;;;;;;4.85;2.97;;;9.90;99.90;;;;;;5058752;28;20032;-67
2023/03/17 09:27:49;;;;;;;4.80;2.65;;;9.90;99.90;;;;;;5058799;28;20032;-67
2023/03/17 09:30:16;;;;;;;5.10;3.15;;;9.90;99.90;;;;;;5059569;28;20021;-67
2023/03/17 09:32:43;;;;;;;4.10;2.50;;;10.10;99.90;;;;;;5058682;28;20021;-68
2023/03/17 09:35:10;;;;;;;3.90;2.80;;;10.20;99.90;;;;;;5059048;28;20020;-68
2023/03/17 11:05:38;;;;;;;6.07;3.22;;;12.90;99.90;;;;;;5156204;27;20365;-66
2023/03/17 11:08:17;;;;;;;5.93;2.95;;;13.20;99.90;;;;;;5155180;27;20088;-66
2023/03/17 11:10:43;;;;;;;4.88;2.80;;;13.20;99.90;;;;;;5155018;27;20031;-66
2023/03/17 11:13:14;;;;;;;5.32;3.22;;;13.30;99.90;;;;;;5154980;27;20019;-66
2023/03/17 11:15:45;;;;;;;5.72;3.05;;;13.30;99.90;;;;;;5154905;27;20023;-66
2023/03/17 11:18:13;;;;;;;9.27;2.90;;;12.80;99.90;;;;;;5162584;22;20067;-67
2023/03/17 11:20:41;;;;;;;6.32;3.28;;;12.90;99.90;;;;;;5134361;28;20027;-66
2023/03/17 11:23:25;;;;;;;5.97;2.78;;;12.90;99.90;;;;;;5133947;28;20031;-66
2023/03/17 11:26:13;;;;;;;6.47;3.42;;;13.30;99.90;;;;;;5134072;28;20050;-67
2023/03/17 11:28:42;;;;;;;5.68;3.13;;;13.30;99.90;;;;;;5134939;27;20047;-67
2023/03/17 12:08:58;;;;;;;6.07;3.30;;;13.90;99.90;;;;;;5074293;28;20341;-67
2023/03/17 12:11:28;;;;;;;5.90;3.05;;;14.20;99.90;;;;;;5057148;22;20133;-69
2023/03/17 12:13:59;;;;;;;6.25;3.10;;;14.00;99.90;;;;;;5014505;28;20022;-70
2023/03/17 12:16:33;;;;;;;3.47;2.50;;;13.90;99.90;;;;;;5030425;28;20018;-70
2023/03/17 12:19:22;;;;;;;6.15;3.10;;;14.00;99.90;;;;;;5031251;28;20033;-70
2023/03/17 12:21:53;;;;;;;9.52;3.25;;;14.40;99.90;;;;;;5030273;28;20049;-70
2023/03/17 12:24:24;;;;;;;7.97;3.45;;;14.40;99.90;;;;;;5014618;28;20072;-70
2023/03/17 12:26:56;;;;;;;;;;;14.40;99.90;;;;;;5014572;28;20030;-70
2023/03/17 12:29:48;;;;;;;5.80;3.00;;;14.40;99.90;;;;;;5014404;28;19913;-70
2023/03/17 12:32:38;;;;;;;5.43;2.67;;;14.20;99.90;;;;;;5030083;28;20022;-70
2023/03/17 12:35:26;;;;;;;5.00;2.70;;;14.60;99.90;;;;;;5013360;28;20025;-69
2023/03/17 12:37:53;;;;;;;5.45;2.78;;;14.40;99.90;;;;;;5014544;28;20026;-69
2023/03/17 12:40:27;;;;;;;7.82;3.40;;;14.40;99.90;;;;;;5030040;28;20026;-69
2023/03/17 12:43:18;;;;;;;8.57;2.60;;;14.00;99.90;;;;;;5030588;28;20026;-70
2023/03/17 12:46:02;;;;;;;8.93;3.00;;;13.90;99.90;;;;;;5030652;28;20117;-69
2023/03/17 12:48:33;;;;;;;7.60;2.83;;;14.10;99.90;;;;;;5029521;28;20038;-70
2023/03/17 12:51:30;;;;;;;6.53;3.05;;;13.90;99.90;;;;;;5029882;28;20085;-69
2023/03/17 12:53:58;;;;;;;7.28;2.63;;;13.90;99.90;;;;;;5014282;28;20033;-69
2023/03/17 12:56:28;;;;;;;4.25;2.92;;;13.80;99.90;;;;;;5029510;28;20026;-69
2023/03/17 12:59:00;;;;;;;5.50;3.08;;;13.80;99.90;;;;;;5013059;28;20030;-70
2023/03/17 13:02:11;;;;;;;8.00;3.28;;;14.20;99.90;;;;;;5013002;28;20104;-70
2023/03/17 13:04:36;;;;;;;7.05;3.03;;;14.50;99.90;;;;;;5013892;28;20105;-70
2023/03/17 13:07:20;;;;;;;5.75;2.72;;;14.60;99.90;;;;;;5029615;28;20226;-69
2023/03/17 13:09:52;;;;;;;8.75;3.00;;;14.70;99.90;;;;;;5013745;28;20028;-70
2023/03/17 13:12:57;;;;;;;6.97;3.00;;;14.90;99.90;;;;;;5029008;28;20034;-69
2023/03/17 13:15:38;;;;;;;9.73;3.20;;;14.90;99.90;;;;;;4983593;28;20034;-70
2023/03/17 13:18:12;;;;;;;6.13;2.65;;;14.80;99.90;;;;;;5010640;28;20026;-69
2023/03/17 13:20:42;;;;;;;6.82;2.80;;;15.10;99.90;;;;;;5015967;28;20081;-69
2023/03/17 13:23:10;;;;;;;5.22;3.03;;;15.10;99.90;;;;;;4999496;28;20030;-69
2023/03/17 13:25:44;;;;;;;6.57;2.80;;;15.20;99.90;;;;;;5000275;28;20031;-70
2023/03/17 13:28:10;;;;;;;4.72;2.72;;;15.40;99.90;;;;;;5015681;28;20031;-70
2023/03/17 13:30:36;;;;;;;5.95;3.00;;;15.20;99.90;;;;;;5015610;28;20019;-70
2023/03/17 13:33:12;;;;;;;5.93;3.13;;;15.20;99.90;;;;;;5016531;28;20161;-70
2023/03/17 13:35:52;;;;;;;7.70;2.97;;;15.30;99.90;;;;;;5015719;28;20035;-70
2023/03/17 13:38:52;;;;;;;6.32;2.75;;;15.20;99.90;;;;;;5016509;28;20062;-70
2023/03/17 13:41:31;;;;;;;12.20;5.15;;;15.50;99.90;;;;;;5016089;28;20034;-70
2023/03/17 13:44:10;;;;;;;10.15;5.45;;;15.60;99.90;;;;;;5016541;28;20089;-70
2023/03/17 13:46:36;;;;;;;5.80;3.47;;;15.60;99.90;;;;;;5016288;28;20033;-69
2023/03/17 13:49:25;;;;;;;9.60;3.17;;;15.60;99.90;;;;;;5015323;28;20023;-70
2023/03/17 13:51:54;;;;;;;5.80;2.88;;;15.30;99.90;;;;;;5000196;28;20050;-70
2023/03/17 13:54:20;;;;;;;5.38;2.70;;;15.40;99.90;;;;;;4999846;28;20106;-70
2023/03/17 13:56:48;;;;;;;9.85;4.40;;;15.30;99.90;;;;;;5000146;28;20061;-70
2023/03/17 13:59:18;;;;;;;9.10;3.80;;;15.50;99.90;;;;;;5015222;28;20022;-69
2023/03/17 14:01:56;;;;;;;5.43;2.90;;;15.70;99.90;;;;;;5015062;28;20148;-70
2023/03/17 14:04:28;;;;;;;6.45;3.30;;;15.60;99.90;;;;;;5015223;28;20118;-69
2023/03/17 14:06:55;;;;;;;;;;;15.60;99.90;;;;;;5015353;28;20026;-70
2023/03/17 14:09:29;;;;;;;7.75;3.35;;;15.50;99.90;;;;;;5000096;28;19913;-70
2023/03/17 14:11:59;;;;;;;7.95;3.08;;;15.60;99.90;;;;;;4998988;28;20068;-69
2023/03/17 14:14:35;;;;;;;6.78;3.78;;;15.80;99.90;;;;;;4999455;28;20033;-70
2023/03/17 14:17:43;;;;;;;5.53;2.70;;;15.80;99.90;;;;;;4999656;28;20049;-71
2023/03/17 14:20:14;;;;;;;8.10;2.80;;;15.90;99.90;;;;;;4997656;28;20030;-69
2023/03/17 14:22:43;;;;;;;9.63;3.58;;;16.00;99.90;;;;;;5015063;28;20080;-69
2023/03/17 14:25:16;;;;;;;5.45;3.20;;;16.00;99.90;;;;;;5014691;28;20031;-69
2023/03/17 14:27:53;;;;;;;9.15;3.13;;;16.00;99.90;;;;;;5015005;28;20053;-70
2023/03/17 14:30:28;;;;;;;5.45;3.15;;;16.00;99.90;;;;;;5013587;28;20023;-70
2023/03/17 14:33:20;;;;;;;6.57;3.35;;;16.00;99.90;;;;;;4999408;28;20026;-70
2023/03/17 14:35:52;;;;;;;4.93;2.67;;;16.00;99.90;;;;;;4984756;28;20034;-70
2023/03/17 14:38:25;;;;;;;5.25;2.72;;;16.00;99.90;;;;;;5014805;28;20081;-69
2023/03/17 14:41:18;;;;;;;8.38;2.58;;;15.90;99.90;;;;;;4999147;28;20026;-69
2023/03/17 14:43:45;;;;;;;7.22;3.08;;;15.80;99.90;;;;;;4997585;28;20066;-70
2023/03/17 14:46:27;;;;;;;7.00;3.10;;;15.80;99.90;;;;;;5014508;28;20026;-70
2023/03/17 14:49:24;;;;;;;7.18;2.97;;;15.70;99.90;;;;;;4999093;28;20026;-71
2023/03/17 14:51:56;;;;;;;12.05;3.55;;;15.30;99.90;;;;;;4995730;28;20077;-69
2023/03/17 14:54:27;;;;;;;;;;;14.90;99.90;;;;;;5015383;28;20033;-70
2023/03/17 14:57:03;;;;;;;5.07;2.40;;;15.00;99.90;;;;;;4998197;28;19917;-69
2023/03/17 14:59:53;;;;;;;6.50;2.95;;;15.10;99.90;;;;;;5014609;28;20109;-69
2023/03/17 15:02:23;;;;;;;6.10;2.78;;;15.10;99.90;;;;;;4997829;28;20113;-69
2023/03/17 15:05:23;;;;;;;6.13;2.30;;;15.40;99.90;;;;;;5014052;28;20026;-70
2023/03/17 15:07:49;;;;;;;6.10;2.72;;;15.40;99.90;;;;;;5013899;28;20045;-70
2023/03/17 15:10:23;;;;;;;6.50;3.35;;;15.40;99.90;;;;;;5013894;28;20026;-70
2023/03/17 15:12:58;;;;;;;6.70;3.38;;;15.20;99.90;;;;;;4997420;28;20026;-70
2023/03/17 15:15:36;;;;;;;6.35;2.85;;;15.10;99.90;;;;;;4997513;28;20027;-70
2023/03/17 15:18:13;;;;;;;10.73;3.33;;;15.00;99.90;;;;;;5014284;28;20060;-70
2023/03/17 15:20:41;;;;;;;8.10;2.67;;;15.00;99.90;;;;;;4997552;28;20030;-69
2023/03/17 15:23:23;;;;;;;5.05;2.70;;;15.00;99.90;;;;;;4998045;28;20049;-69
2023/03/17 15:25:55;;;;;;;8.63;3.10;;;15.00;99.90;;;;;;4997401;28;20018;-70
2023/03/17 15:28:27;;;;;;;8.73;2.75;;;15.00;99.90;;;;;;5013489;28;20026;-69
2023/03/17 15:30:57;;;;;;;5.68;3.20;;;15.10;99.90;;;;;;4997094;28;20030;-70
2023/03/17 15:33:36;;;;;;;4.33;2.90;;;15.30;99.90;;;;;;4997998;28;20022;-70
2023/03/17 15:36:02;;;;;;;7.07;2.60;;;15.40;99.90;;;;;;4998080;28;20025;-70
2023/03/17 15:38:28;;;;;;;6.45;2.42;;;15.20;99.90;;;;;;4997071;28;20027;-70
2023/03/17 15:40:53;;;;;;;6.40;2.72;;;14.90;99.90;;;;;;5032407;28;20032;-70
2023/03/17 15:43:23;;;;;;;6.22;2.15;;;14.90;99.90;;;;;;5016625;28;20026;-70
2023/03/17 15:46:02;;;;;;;5.70;2.90;;;15.00;99.90;;;;;;5017071;28;20032;-69
2023/03/17 15:48:30;;;;;;;6.90;2.63;;;15.10;99.90;;;;;;5017294;28;20034;-70